Time;durP1;ratioP1;P1;durP2;ratioP2;P2;SDS_P1;SDS_P2;PMS_P1;PMS_P2;Temp;Humidity;BMP_temperature;BMP_pressure;BME280_temperature;BME280_humidity;BME280_pressure;Samples;Min_cycle;Max_cycle;Signal;HPM_P1;HPM_P2
2023/06/28 00:00:18;;;;;;;4.50;2.10;;;20.00;75.70;;;;;;5115090;28;20016;-78
2023/06/28 00:02:44;;;;;;;4.05;2.00;;;20.00;75.70;;;;;;5115085;28;20132;-78
2023/06/28 00:05:11;;;;;;;6.22;2.20;;;20.00;75.70;;;;;;5116001;28;20021;-78
2023/06/28 00:07:36;;;;;;;5.18;2.58;;;20.00;75.70;;;;;;5098004;28;20020;-78
2023/06/28 00:10:03;;;;;;;6.03;2.38;;;20.00;76.00;;;;;;5098035;28;20104;-78
2023/06/28 00:12:30;;;;;;;4.97;2.45;;;20.00;76.20;;;;;;5115426;28;20038;-79
2023/06/28 00:14:57;;;;;;;3.85;2.40;;;20.00;76.00;;;;;;5115763;28;20083;-78
2023/06/28 00:17:27;;;;;;;3.90;2.15;;;20.00;76.00;;;;;;5114518;28;20058;-78
2023/06/28 00:19:57;;;;;;;4.63;2.10;;;20.10;76.20;;;;;;5114815;28;20024;-78
2023/06/28 00:22:29;;;;;;;5.57;2.63;;;20.00;76.10;;;;;;5114792;28;20024;-78
2023/06/28 00:24:55;;;;;;;;;;;20.00;75.90;;;;;;5116018;28;20040;-78
2023/06/28 00:27:21;;;;;;;5.25;2.00;;;20.00;75.80;;;;;;5115537;28;19915;-77
2023/06/28 00:29:47;;;;;;;7.03;2.50;;;19.90;76.10;;;;;;5114532;28;20088;-77
2023/06/28 00:32:12;;;;;;;5.38;2.30;;;19.90;76.50;;;;;;5114569;28;20099;-77
2023/06/28 00:34:38;;;;;;;5.38;2.42;;;19.90;76.80;;;;;;5097374;28;20058;-77
2023/06/28 00:37:03;;;;;;;4.63;2.38;;;19.90;77.00;;;;;;5114279;28;20044;-77
2023/06/28 00:39:29;;;;;;;4.10;2.47;;;19.90;77.00;;;;;;5097322;28;20081;-77
2023/06/28 00:41:55;;;;;;;5.13;2.85;;;19.80;77.00;;;;;;5114258;28;20027;-77
2023/06/28 00:44:21;;;;;;;5.65;3.00;;;19.60;78.20;;;;;;5115334;28;20035;-77
2023/06/28 00:46:48;;;;;;;3.17;2.20;;;19.50;77.80;;;;;;5114077;28;20024;-77
2023/06/28 00:49:14;;;;;;;4.93;2.63;;;19.50;78.20;;;;;;5115084;28;20020;-77
2023/06/28 00:51:41;;;;;;;4.82;2.35;;;19.40;79.50;;;;;;5114134;28;20032;-77
2023/06/28 00:54:06;;;;;;;4.72;2.97;;;19.40;79.00;;;;;;5114080;28;20028;-77
2023/06/28 00:56:33;;;;;;;3.92;2.67;;;19.50;79.30;;;;;;5114007;28;20028;-77
2023/06/28 00:58:59;;;;;;;5.95;2.88;;;19.50;80.70;;;;;;5114864;28;20024;-77
2023/06/28 01:01:25;;;;;;;4.32;2.75;;;19.50;79.90;;;;;;5113988;28;20040;-77
2023/06/28 01:03:53;;;;;;;7.18;3.55;;;19.50;79.90;;;;;;5113945;28;20035;-77
2023/06/28 01:06:21;;;;;;;6.32;3.30;;;19.50;79.50;;;;;;5113829;28;20049;-77
2023/06/28 01:08:47;;;;;;;4.32;2.78;;;19.60;79.30;;;;;;5114708;28;20039;-77
2023/06/28 01:11:12;;;;;;;5.32;2.85;;;19.50;79.10;;;;;;5113602;28;20028;-77
2023/06/28 01:13:39;;;;;;;7.13;3.28;;;19.60;79.20;;;;;;5113550;28;20035;-77
2023/06/28 01:16:05;;;;;;;6.78;2.95;;;19.50;78.80;;;;;;5114581;28;20028;-77
2023/06/28 01:18:33;;;;;;;5.22;2.83;;;19.40;78.60;;;;;;5114292;28;20052;-77
2023/06/28 01:21:02;;;;;;;6.85;3.30;;;19.40;78.50;;;;;;5096849;28;20045;-77
2023/06/28 01:23:28;;;;;;;6.53;2.95;;;19.40;78.50;;;;;;5112740;28;20024;-77
2023/06/28 01:25:54;;;;;;;6.88;2.83;;;19.30;78.80;;;;;;5114449;28;20020;-77
2023/06/28 01:28:21;;;;;;;6.80;2.95;;;19.30;79.00;;;;;;5114395;28;20024;-77
2023/06/28 01:30:52;;;;;;;6.28;3.13;;;19.30;79.40;;;;;;5114336;28;20024;-77
2023/06/28 01:33:18;;;;;;;6.53;2.90;;;19.40;79.60;;;;;;5114399;28;20024;-77
2023/06/28 01:35:44;;;;;;;6.90;3.05;;;19.30;79.30;;;;;;5113311;28;20083;-77
2023/06/28 01:38:11;;;;;;;5.82;2.70;;;19.20;79.60;;;;;;5114125;28;20020;-77
2023/06/28 01:40:39;;;;;;;6.13;2.72;;;19.20;80.00;;;;;;5096223;28;20021;-77
2023/06/28 01:43:06;;;;;;;6.68;3.13;;;19.20;80.40;;;;;;5114165;28;20039;-78
2023/06/28 01:45:36;;;;;;;5.63;3.13;;;19.20;80.70;;;;;;5096119;28;20114;-78
2023/06/28 01:48:02;;;;;;;5.13;2.85;;;19.20;80.80;;;;;;5113178;28;20028;-77
2023/06/28 01:50:29;;;;;;;9.32;3.22;;;19.20;81.10;;;;;;5113005;28;20372;-77
2023/06/28 01:53:03;;;;;;;5.82;3.00;;;19.20;81.20;;;;;;5113998;28;20047;-77
2023/06/28 01:55:29;;;;;;;6.07;2.83;;;19.20;81.00;;;;;;5113939;28;20375;-77
2023/06/28 01:57:56;;;;;;;7.25;3.22;;;19.20;81.20;;;;;;5112890;28;20410;-78
2023/06/28 02:00:22;;;;;;;5.60;2.97;;;19.10;81.90;;;;;;5112788;28;20016;-78
2023/06/28 02:02:48;;;;;;;5.70;2.95;;;19.00;82.30;;;;;;5113871;28;20088;-78
2023/06/28 02:05:13;;;;;;;5.57;2.95;;;19.10;82.40;;;;;;5113768;28;20067;-78
2023/06/28 02:07:39;;;;;;;4.53;3.10;;;19.20;82.20;;;;;;5112889;28;20375;-78
2023/06/28 02:10:05;;;;;;;7.65;3.40;;;19.20;82.90;;;;;;5113678;28;20024;-78
2023/06/28 02:12:31;;;;;;;6.10;3.55;;;19.10;82.40;;;;;;5112670;28;20024;-78
2023/06/28 02:14:58;;;;;;;6.40;3.60;;;19.10;83.50;;;;;;5095808;28;20031;-77
2023/06/28 02:17:23;;;;;;;4.32;3.03;;;19.10;82.80;;;;;;5112395;28;20054;-77
2023/06/28 02:19:50;;;;;;;5.65;3.22;;;19.20;82.60;;;;;;5112826;28;20024;-77
2023/06/28 02:22:16;;;;;;;8.75;3.72;;;19.30;82.50;;;;;;5112528;28;20039;-77
2023/06/28 02:24:42;;;;;;;8.35;3.90;;;19.30;82.30;;;;;;5112526;28;20027;-77
2023/06/28 02:27:11;;;;;;;7.07;4.18;;;19.30;82.30;;;;;;5113536;28;20396;-77
2023/06/28 02:29:37;;;;;;;6.13;3.70;;;19.30;82.00;;;;;;5113506;28;20429;-77
2023/06/28 02:32:03;;;;;;;5.82;3.40;;;19.30;82.40;;;;;;5112401;28;20028;-77
2023/06/28 02:34:29;;;;;;;6.05;3.33;;;19.30;82.50;;;;;;5114614;28;20020;-78
2023/06/28 02:36:55;;;;;;;6.10;3.38;;;19.30;82.60;;;;;;5116592;28;20031;-78
2023/06/28 02:39:22;;;;;;;8.05;3.53;;;19.30;82.70;;;;;;5117509;28;20046;-78
2023/06/28 02:41:48;;;;;;;7.10;3.45;;;19.30;82.90;;;;;;5117573;28;20016;-78
2023/06/28 02:44:14;;;;;;;6.55;3.10;;;19.30;83.10;;;;;;5117483;28;20111;-78
2023/06/28 02:46:40;;;;;;;6.85;3.53;;;19.30;83.00;;;;;;5099486;28;20111;-77
2023/06/28 02:49:06;;;;;;;6.35;3.85;;;19.30;82.80;;;;;;5117586;28;20026;-77
2023/06/28 02:51:32;;;;;;;6.88;3.88;;;19.20;82.60;;;;;;5116493;28;20033;-77
2023/06/28 02:53:57;;;;;;;8.73;3.97;;;19.20;82.70;;;;;;5099364;28;20028;-77
2023/06/28 02:56:23;;;;;;;9.00;4.10;;;19.10;82.80;;;;;;5116287;28;20035;-77
2023/06/28 02:58:49;;;;;;;8.68;4.10;;;19.10;82.60;;;;;;5099284;28;20513;-77
2023/06/28 03:01:15;;;;;;;7.20;4.03;;;19.00;83.00;;;;;;5099440;28;20460;-77
2023/06/28 03:03:41;;;;;;;10.00;4.40;;;19.00;83.10;;;;;;5117155;28;20026;-77
2023/06/28 03:06:07;;;;;;;7.13;4.07;;;18.80;83.50;;;;;;5116158;28;20023;-78
2023/06/28 03:08:33;;;;;;;6.18;4.03;;;18.80;83.90;;;;;;5116173;28;20081;-77
2023/06/28 03:10:59;;;;;;;6.50;3.47;;;18.70;84.10;;;;;;5099066;28;20074;-77
2023/06/28 03:13:25;;;;;;;10.43;4.10;;;18.60;84.80;;;;;;5098995;28;20024;-77
2023/06/28 03:15:50;;;;;;;7.40;3.80;;;18.60;84.90;;;;;;5115846;28;20119;-77
2023/06/28 03:18:16;;;;;;;6.55;4.07;;;18.60;85.00;;;;;;5115614;28;20051;-77
2023/06/28 03:20:42;;;;;;;6.63;3.30;;;18.60;85.00;;;;;;5115855;28;20035;-77
2023/06/28 03:23:08;;;;;;;6.22;3.40;;;18.60;84.80;;;;;;5098867;28;20024;-77
2023/06/28 03:25:33;;;;;;;5.55;3.30;;;18.60;84.60;;;;;;5115832;28;20020;-77
2023/06/28 03:27:59;;;;;;;5.22;3.25;;;18.60;83.60;;;;;;5115829;28;20081;-77
2023/06/28 03:30:25;;;;;;;6.28;3.67;;;18.60;83.40;;;;;;5115696;28;20032;-76
2023/06/28 03:32:51;;;;;;;8.23;3.80;;;18.60;82.40;;;;;;5115687;28;20035;-76
2023/06/28 03:35:16;;;;;;;9.35;3.53;;;18.50;82.50;;;;;;5098570;28;20050;-77
2023/06/28 03:37:53;;;;;;;6.47;3.45;;;18.50;83.10;;;;;;5098610;28;20051;-76
2023/06/28 03:40:19;;;;;;;6.40;3.22;;;18.30;83.50;;;;;;5116544;28;20076;-76
2023/06/28 03:42:44;;;;;;;7.25;3.47;;;18.30;83.70;;;;;;5116410;28;20023;-76
2023/06/28 03:45:10;;;;;;;5.53;3.70;;;18.40;84.00;;;;;;5116363;28;20020;-77
2023/06/28 03:47:36;;;;;;;7.43;3.67;;;18.40;83.80;;;;;;5114711;28;20073;-77
2023/06/28 03:50:02;;;;;;;5.88;3.67;;;18.50;84.00;;;;;;5098340;28;20029;-76
2023/06/28 03:52:28;;;;;;;5.85;3.78;;;18.50;84.00;;;;;;5115275;28;20016;-76
2023/06/28 03:54:54;;;;;;;5.88;3.67;;;18.50;83.90;;;;;;5115292;28;20047;-77
2023/06/28 03:57:22;;;;;;;4.88;3.35;;;18.50;83.60;;;;;;5116106;28;20031;-76
2023/06/28 03:59:48;;;;;;;7.88;3.80;;;18.40;83.60;;;;;;5114962;28;20050;-76
2023/06/28 04:02:13;;;;;;;7.55;3.88;;;18.30;83.90;;;;;;5116042;28;20483;-76
2023/06/28 04:04:39;;;;;;;7.10;4.13;;;18.30;84.40;;;;;;5098148;28;20047;-77
2023/06/28 04:07:05;;;;;;;6.10;3.85;;;18.30;84.50;;;;;;5115161;28;20073;-77
2023/06/28 04:09:31;;;;;;;7.57;3.90;;;18.30;84.70;;;;;;5114892;28;20036;-77
2023/06/28 04:11:57;;;;;;;7.57;4.10;;;18.30;84.80;;;;;;5115071;28;20038;-77
2023/06/28 04:14:26;;;;;;;6.85;3.97;;;18.20;84.90;;;;;;5115825;28;20035;-77
2023/06/28 04:16:52;;;;;;;5.97;3.85;;;18.20;85.50;;;;;;5114822;28;20020;-78
2023/06/28 04:19:18;;;;;;;6.22;4.22;;;18.20;85.90;;;;;;5115558;28;20040;-78
2023/06/28 04:21:44;;;;;;;6.70;4.32;;;18.20;85.90;;;;;;5115646;28;20044;-77
2023/06/28 04:24:10;;;;;;;7.07;4.13;;;18.10;86.30;;;;;;5114652;28;20032;-77
2023/06/28 04:26:35;;;;;;;8.02;4.35;;;18.10;86.10;;;;;;5114708;28;20012;-77
2023/06/28 04:29:01;;;;;;;8.02;4.30;;;18.20;86.20;;;;;;5115519;28;20036;-77
2023/06/28 04:31:28;;;;;;;8.98;4.40;;;18.20;86.10;;;;;;5114546;28;20032;-77
2023/06/28 04:33:57;;;;;;;6.93;3.80;;;18.20;86.00;;;;;;5115460;28;20059;-77
2023/06/28 04:36:25;;;;;;;6.00;3.58;;;18.20;85.90;;;;;;5115410;28;20028;-76
2023/06/28 04:38:54;;;;;;;7.22;3.88;;;18.20;86.10;;;;;;5114195;28;20032;-76
2023/06/28 04:41:28;;;;;;;11.07;4.00;;;18.30;86.10;;;;;;5114459;28;20024;-77
2023/06/28 04:43:55;;;;;;;5.88;3.83;;;18.20;85.70;;;;;;5114240;28;20112;-77
2023/06/28 04:46:27;;;;;;;6.18;3.25;;;18.20;85.50;;;;;;5114302;28;20023;-77
2023/06/28 04:48:54;;;;;;;6.50;3.47;;;18.10;85.20;;;;;;5115389;28;20055;-77
2023/06/28 04:51:20;;;;;;;7.78;3.70;;;18.00;85.80;;;;;;5114124;28;20047;-77
2023/06/28 04:53:49;;;;;;;6.25;3.60;;;18.00;85.80;;;;;;5115037;28;20049;-78
2023/06/28 04:56:15;;;;;;;6.25;3.17;;;18.10;85.70;;;;;;5115030;28;20483;-77
2023/06/28 04:58:41;;;;;;;5.50;3.55;;;18.00;85.50;;;;;;5113019;28;20074;-78
2023/06/28 05:01:08;;;;;;;6.63;3.40;;;18.00;85.40;;;;;;5114944;28;20020;-78
2023/06/28 05:03:35;;;;;;;5.55;3.03;;;17.90;85.50;;;;;;5114945;28;20452;-78
2023/06/28 05:06:02;;;;;;;9.70;3.85;;;17.90;85.60;;;;;;5114860;28;20039;-78
2023/06/28 05:08:27;;;;;;;6.70;3.08;;;17.90;85.70;;;;;;5113891;28;20024;-77
2023/06/28 05:10:53;;;;;;;6.90;3.40;;;17.90;85.60;;;;;;5114795;28;20107;-78
2023/06/28 05:13:20;;;;;;;7.05;3.38;;;17.80;85.50;;;;;;5114667;28;20028;-78
2023/06/28 05:15:46;;;;;;;9.32;3.60;;;17.80;85.80;;;;;;5114637;28;20027;-78
2023/06/28 05:18:12;;;;;;;5.30;3.58;;;17.80;85.70;;;;;;5114450;28;20048;-78
2023/06/28 05:20:38;;;;;;;6.03;3.42;;;17.80;85.80;;;;;;5113547;28;20019;-78
2023/06/28 05:23:13;;;;;;;6.30;3.58;;;17.90;85.30;;;;;;5114532;28;20083;-77
2023/06/28 05:25:40;;;;;;;6.07;3.70;;;17.80;85.70;;;;;;5114502;28;20028;-78
2023/06/28 05:28:10;;;;;;;6.18;3.78;;;17.80;86.10;;;;;;5114430;28;20024;-77
2023/06/28 05:30:36;;;;;;;7.43;3.70;;;17.80;86.20;;;;;;5113394;28;20036;-76
2023/06/28 05:33:02;;;;;;;6.20;3.97;;;17.90;86.30;;;;;;5113204;28;20467;-76
2023/06/28 05:35:32;;;;;;;9.02;3.75;;;17.90;85.90;;;;;;5096228;28;20020;-76
2023/06/28 05:38:02;;;;;;;8.90;3.72;;;17.90;85.90;;;;;;5114038;28;20031;-77
2023/06/28 05:40:29;;;;;;;6.65;3.40;;;17.90;86.30;;;;;;5113376;28;20061;-76
2023/06/28 05:42:55;;;;;;;6.53;3.80;;;17.90;86.20;;;;;;5113077;28;20421;-76
2023/06/28 05:45:22;;;;;;;9.38;4.32;;;17.90;86.30;;;;;;5113228;28;20028;-76
2023/06/28 05:47:48;;;;;;;8.00;3.67;;;17.90;86.60;;;;;;5112938;28;20059;-77
2023/06/28 05:50:15;;;;;;;9.40;3.63;;;17.80;86.80;;;;;;5096055;28;20035;-77
2023/06/28 05:52:43;;;;;;;7.40;3.75;;;17.70;87.10;;;;;;5096322;28;20023;-76
2023/06/28 05:55:08;;;;;;;6.95;3.97;;;17.60;87.50;;;;;;5096329;28;20032;-76
2023/06/28 05:57:35;;;;;;;11.15;4.68;;;17.60;88.30;;;;;;5113879;28;20047;-76
2023/06/28 06:00:01;;;;;;;5.30;3.85;;;17.50;88.70;;;;;;5112887;28;20038;-77
2023/06/28 06:02:27;;;;;;;7.38;3.80;;;17.50;89.40;;;;;;5095958;28;20020;-77
2023/06/28 06:04:53;;;;;;;9.57;4.40;;;17.50;89.60;;;;;;5112818;28;20046;-77
2023/06/28 06:07:18;;;;;;;9.63;4.22;;;17.50;89.60;;;;;;5112727;28;20036;-77
2023/06/28 06:09:44;;;;;;;7.90;4.28;;;17.50;89.70;;;;;;5112424;28;20039;-76
2023/06/28 06:12:10;;;;;;;9.88;4.43;;;17.60;89.30;;;;;;5095792;28;20081;-77
2023/06/28 06:14:35;;;;;;;10.43;4.97;;;17.60;90.00;;;;;;5113675;28;20039;-76
2023/06/28 06:17:01;;;;;;;8.68;4.75;;;17.70;89.40;;;;;;5095760;28;20028;-77
2023/06/28 06:19:28;;;;;;;8.05;4.40;;;17.70;89.60;;;;;;5112506;28;20052;-77
2023/06/28 06:21:53;;;;;;;8.38;4.20;;;17.70;89.60;;;;;;5113610;28;20054;-77
2023/06/28 06:24:19;;;;;;;8.38;4.93;;;17.70;89.70;;;;;;5112600;28;20017;-76
2023/06/28 06:26:44;;;;;;;7.05;4.22;;;17.80;89.80;;;;;;5095680;28;20032;-76
2023/06/28 06:29:10;;;;;;;8.48;4.60;;;17.80;90.00;;;;;;5112476;28;20036;-76
2023/06/28 06:31:36;;;;;;;5.95;4.50;;;17.80;90.40;;;;;;5112428;28;20032;-76
2023/06/28 06:34:02;;;;;;;8.50;5.10;;;17.90;90.10;;;;;;5095537;28;20028;-77
2023/06/28 06:36:28;;;;;;;8.45;4.30;;;17.90;89.80;;;;;;5095564;28;20028;-77
2023/06/28 06:38:57;;;;;;;10.98;4.95;;;17.80;89.80;;;;;;5112186;28;20039;-76
2023/06/28 06:41:46;;;;;;;7.43;4.30;;;17.80;89.90;;;;;;5112448;28;20020;-76
2023/06/28 06:44:36;;;;;;;8.63;4.15;;;17.80;89.90;;;;;;5014455;28;20615;-76
2023/06/28 06:47:03;;;;;;;8.02;4.15;;;17.80;89.70;;;;;;5112364;28;20017;-76
2023/06/28 06:49:29;;;;;;;7.32;4.30;;;17.80;89.50;;;;;;5113291;28;20029;-76
2023/06/28 06:51:55;;;;;;;9.57;4.45;;;17.90;89.50;;;;;;5113234;28;20038;-75
2023/06/28 06:54:20;;;;;;;7.03;4.97;;;17.80;89.60;;;;;;5112293;28;20042;-74
2023/06/28 06:56:46;;;;;;;8.38;4.95;;;17.80;89.70;;;;;;5112120;28;20079;-75
2023/06/28 06:59:12;;;;;;;8.18;4.57;;;17.80;89.70;;;;;;5113022;28;20038;-74
2023/06/28 07:01:37;;;;;;;7.50;4.78;;;17.90;90.10;;;;;;5095390;28;20022;-75
2023/06/28 07:04:03;;;;;;;9.75;4.90;;;17.90;90.20;;;;;;5112177;28;20388;-75
2023/06/28 07:06:29;;;;;;;10.45;4.88;;;17.90;90.10;;;;;;5112131;28;20024;-74
2023/06/28 07:08:54;;;;;;;9.70;4.72;;;17.90;90.10;;;;;;5113047;28;20024;-75
2023/06/28 07:11:20;;;;;;;7.55;4.43;;;17.90;90.20;;;;;;5112127;28;20070;-75
2023/06/28 07:13:46;;;;;;;9.70;5.40;;;17.90;90.20;;;;;;5113049;28;20048;-75
2023/06/28 07:16:11;;;;;;;8.25;5.07;;;17.90;90.30;;;;;;5112033;28;20032;-75
2023/06/28 07:18:38;;;;;;;11.38;4.95;;;17.90;90.40;;;;;;5112794;28;20130;-75
2023/06/28 07:21:04;;;;;;;9.82;4.93;;;17.90;90.40;;;;;;5112553;28;20090;-75
2023/06/28 07:23:30;;;;;;;7.75;4.65;;;17.90;90.40;;;;;;5098806;28;20028;-75
2023/06/28 07:25:55;;;;;;;10.32;5.30;;;18.00;90.40;;;;;;5115731;28;20035;-75
2023/06/28 07:28:21;;;;;;;11.38;4.60;;;18.00;90.40;;;;;;5116684;28;20032;-75
2023/06/28 07:34:21;;;;;;;12.60;7.55;;;18.20;90.30;;;;;;5116680;28;20019;-76
2023/06/28 07:36:48;;;;;;;9.68;4.85;;;18.20;90.40;;;;;;5116679;28;20035;-76
2023/06/28 07:39:14;;;;;;;10.98;5.10;;;18.20;90.30;;;;;;5116407;28;20035;-75
2023/06/28 07:41:39;;;;;;;9.65;5.00;;;18.20;90.30;;;;;;5116401;28;20032;-75
2023/06/28 07:44:05;;;;;;;9.15;4.90;;;18.20;90.20;;;;;;5116383;28;20034;-75
2023/06/28 07:46:31;;;;;;;10.95;5.75;;;18.20;90.30;;;;;;5116382;28;20076;-76
2023/06/28 07:48:59;;;;;;;11.80;5.55;;;18.20;90.20;;;;;;5116300;28;20024;-76
2023/06/28 07:51:25;;;;;;;9.73;5.30;;;18.30;90.50;;;;;;5116218;28;20048;-76
2023/06/28 07:53:56;;;;;;;10.32;5.22;;;18.20;90.60;;;;;;5115165;28;20091;-76
2023/06/28 07:56:22;;;;;;;9.57;5.47;;;18.20;90.90;;;;;;5116096;28;20051;-76
2023/06/28 07:58:48;;;;;;;9.93;4.80;;;18.20;90.90;;;;;;5115234;28;20028;-77
2023/06/28 08:01:15;;;;;;;10.02;5.03;;;18.20;90.60;;;;;;5115994;28;20020;-75
2023/06/28 08:03:40;;;;;;;9.50;5.28;;;18.20;90.60;;;;;;5116002;28;20012;-75
2023/06/28 08:06:06;;;;;;;9.30;4.75;;;18.10;90.60;;;;;;5115993;28;20069;-74
2023/06/28 08:08:32;;;;;;;10.68;4.65;;;18.10;90.50;;;;;;5114801;28;20056;-75
2023/06/28 08:10:57;;;;;;;11.98;6.00;;;18.20;90.50;;;;;;5116046;28;20031;-74
2023/06/28 08:13:23;;;;;;;10.38;4.15;;;18.20;90.50;;;;;;5115708;28;20074;-74
2023/06/28 08:15:49;;;;;;;9.77;5.15;;;18.10;90.30;;;;;;5115704;28;20024;-74
2023/06/28 08:18:16;;;;;;;10.65;4.63;;;18.20;90.20;;;;;;5115636;28;20052;-74
2023/06/28 08:20:44;;;;;;;9.20;4.82;;;18.20;90.20;;;;;;5114702;28;20024;-74
2023/06/28 08:23:10;;;;;;;8.27;5.20;;;18.20;90.20;;;;;;5114732;28;20084;-74
2023/06/28 08:25:35;;;;;;;7.78;5.28;;;18.30;90.10;;;;;;5114538;28;20024;-75
2023/06/28 08:28:01;;;;;;;9.90;5.38;;;18.30;90.40;;;;;;5114482;28;20025;-74
2023/06/28 08:30:27;;;;;;;11.43;5.13;;;18.30;90.50;;;;;;5115446;28;20032;-74
2023/06/28 08:32:52;;;;;;;13.00;5.25;;;18.30;90.40;;;;;;5114216;28;20029;-74
2023/06/28 08:35:18;;;;;;;9.40;5.40;;;18.30;90.70;;;;;;5114238;28;20063;-75
2023/06/28 08:37:44;;;;;;;11.63;5.60;;;18.30;90.10;;;;;;5114215;28;20036;-74
2023/06/28 08:40:10;;;;;;;11.40;5.20;;;18.40;90.20;;;;;;5115270;28;20084;-73
2023/06/28 08:42:40;;;;;;;9.60;5.38;;;18.40;90.00;;;;;;5115207;28;20020;-74
2023/06/28 08:45:06;;;;;;;9.43;5.50;;;18.40;90.10;;;;;;5115135;28;20021;-74
2023/06/28 08:47:32;;;;;;;8.77;5.15;;;18.40;90.00;;;;;;5115076;28;20029;-74
2023/06/28 08:50:06;;;;;;;15.02;5.93;;;18.50;90.10;;;;;;5114234;28;20087;-74
2023/06/28 08:52:35;;;;;;;11.23;5.57;;;18.60;90.60;;;;;;5114038;28;20031;-73
2023/06/28 08:55:03;;;;;;;9.50;5.70;;;18.60;89.70;;;;;;5114067;28;20031;-73
2023/06/28 08:57:29;;;;;;;11.48;5.85;;;18.60;89.80;;;;;;5114889;28;20020;-74
2023/06/28 08:59:55;;;;;;;9.68;5.78;;;18.60;90.00;;;;;;5114829;28;20356;-75
2023/06/28 09:02:22;;;;;;;10.13;5.70;;;18.50;90.00;;;;;;5113838;28;20013;-76
2023/06/28 09:04:50;;;;;;;10.70;5.68;;;18.60;90.00;;;;;;5114802;28;20046;-76
2023/06/28 09:07:17;;;;;;;13.30;5.63;;;18.60;90.10;;;;;;5113852;28;20020;-76
2023/06/28 09:09:47;;;;;;;15.25;5.95;;;18.50;90.00;;;;;;5114685;28;20532;-76
2023/06/28 09:12:13;;;;;;;11.13;5.85;;;18.60;90.00;;;;;;5114732;28;20028;-76
2023/06/28 09:14:39;;;;;;;9.52;5.22;;;18.50;90.00;;;;;;5113659;28;20028;-77
2023/06/28 09:17:43;;;;;;;9.30;5.63;;;18.60;90.20;;;;;;5113709;28;20034;-76
2023/06/28 09:20:20;;;;;;;12.02;6.15;;;18.70;90.40;;;;;;5112354;28;20052;-76
2023/06/28 09:23:32;;;;;;;12.88;5.82;;;18.80;90.20;;;;;;5114813;28;20036;-76
2023/06/28 09:26:13;;;;;;;9.35;6.18;;;18.80;90.10;;;;;;5015795;28;20060;-77
2023/06/28 09:28:48;;;;;;;11.90;6.80;;;18.70;90.00;;;;;;5029433;28;20053;-76
2023/06/28 09:31:23;;;;;;;11.07;5.80;;;18.70;90.40;;;;;;5114463;28;20076;-76
2023/06/28 09:33:53;;;;;;;12.90;6.22;;;18.80;90.00;;;;;;5096484;28;20035;-76
2023/06/28 09:36:22;;;;;;;10.10;6.03;;;18.90;90.00;;;;;;5114369;28;20016;-77
2023/06/28 09:38:49;;;;;;;11.85;6.20;;;18.90;90.00;;;;;;5112897;28;20058;-76
2023/06/28 09:41:14;;;;;;;12.40;6.28;;;18.90;89.50;;;;;;5113215;28;20036;-76
2023/06/28 09:43:41;;;;;;;11.93;6.22;;;19.00;88.90;;;;;;5113549;28;20039;-75
2023/06/28 09:54:11;;;;;;;;;;;;;;;;;;;;;
2023/06/28 09:56:45;;;;;;;14.13;6.50;;;19.10;87.20;;;;;;5011791;28;20050;-77
2023/06/28 09:59:12;;;;;;;14.35;5.90;;;19.20;86.60;;;;;;5074095;28;20032;-77
2023/06/28 10:01:39;;;;;;;9.93;6.00;;;19.20;87.20;;;;;;5075514;28;20037;-78
2023/06/28 10:04:09;;;;;;;11.60;6.00;;;19.20;87.90;;;;;;5091098;28;20017;-78
2023/06/28 10:06:36;;;;;;;11.38;6.03;;;19.30;87.30;;;;;;5074928;28;20044;-77
2023/06/28 10:09:02;;;;;;;9.90;5.47;;;19.40;86.80;;;;;;5074865;28;20028;-77
2023/06/28 10:11:32;;;;;;;10.27;5.70;;;19.30;85.10;;;;;;5074792;28;20117;-78
2023/06/28 10:13:59;;;;;;;11.85;5.72;;;19.30;85.70;;;;;;5091599;28;20056;-78
2023/06/28 10:16:32;;;;;;;10.40;5.63;;;19.30;86.00;;;;;;5074845;28;20063;-77
2023/06/28 10:18:59;;;;;;;10.23;5.70;;;19.40;85.20;;;;;;5074593;28;20231;-77
2023/06/28 10:21:25;;;;;;;10.10;5.90;;;19.40;84.70;;;;;;5074732;28;20033;-77
2023/06/28 10:23:51;;;;;;;11.10;5.32;;;19.40;85.30;;;;;;5091589;28;20521;-77
2023/06/28 10:26:18;;;;;;;11.43;5.30;;;19.40;84.00;;;;;;5093995;28;20032;-77
2023/06/28 10:28:44;;;;;;;10.52;6.20;;;19.50;83.80;;;;;;5113469;28;20079;-77
2023/06/28 10:31:10;;;;;;;12.35;5.32;;;19.50;84.50;;;;;;5112475;28;20020;-77
2023/06/28 10:33:37;;;;;;;10.65;5.53;;;19.50;84.10;;;;;;5112318;28;20020;-78
2023/06/28 10:36:04;;;;;;;11.23;6.05;;;19.60;84.40;;;;;;5113437;28;20035;-78
2023/06/28 10:38:37;;;;;;;15.52;5.78;;;19.60;85.00;;;;;;5112449;28;20039;-78
2023/06/28 10:41:03;;;;;;;10.93;5.82;;;19.60;84.40;;;;;;5096035;28;20027;-77
2023/06/28 10:43:30;;;;;;;9.98;5.60;;;19.70;83.60;;;;;;5113365;28;20020;-78
2023/06/28 10:45:56;;;;;;;12.00;5.93;;;19.70;83.90;;;;;;5113303;28;20378;-77
2023/06/28 10:48:23;;;;;;;12.35;5.95;;;19.80;83.40;;;;;;5112426;28;20048;-77
2023/06/28 10:50:50;;;;;;;10.77;5.80;;;19.80;83.50;;;;;;5112255;28;20016;-77
2023/06/28 10:53:20;;;;;;;10.25;5.22;;;19.90;84.10;;;;;;5112313;28;20088;-78
2023/06/28 10:56:08;;;;;;;12.70;5.82;;;20.00;83.00;;;;;;5114984;28;20525;-77
2023/06/28 10:58:41;;;;;;;14.23;6.25;;;20.10;82.60;;;;;;5116252;28;20081;-77
2023/06/28 11:01:09;;;;;;;11.98;6.68;;;20.20;82.10;;;;;;5117268;28;20378;-77
2023/06/28 11:03:44;;;;;;;11.93;5.57;;;20.20;82.40;;;;;;5116240;28;20051;-77
2023/06/28 11:06:14;;;;;;;12.55;5.70;;;20.40;82.50;;;;;;5116237;28;20024;-77
2023/06/28 11:08:42;;;;;;;14.95;5.75;;;20.50;82.10;;;;;;5116270;28;20030;-77
2023/06/28 11:11:10;;;;;;;13.48;5.75;;;20.50;81.10;;;;;;5116136;28;20087;-77
2023/06/28 11:13:42;;;;;;;10.30;6.00;;;20.50;80.70;;;;;;5115985;28;20020;-77
2023/06/28 11:16:09;;;;;;;10.43;5.85;;;20.60;81.40;;;;;;5115868;28;20020;-77
2023/06/28 11:18:36;;;;;;;10.38;6.15;;;20.70;80.30;;;;;;5115773;28;20066;-78
2023/06/28 11:21:03;;;;;;;10.02;5.45;;;20.70;79.30;;;;;;5116869;28;20087;-78
2023/06/28 11:23:42;;;;;;;10.25;5.90;;;20.70;81.20;;;;;;5116805;28;20075;-78
2023/06/28 11:26:18;;;;;;;9.82;5.80;;;20.80;81.10;;;;;;5116782;28;20040;-78
2023/06/28 11:28:54;;;;;;;9.40;4.93;;;20.80;79.80;;;;;;5116774;28;20059;-78
2023/06/28 11:31:49;;;;;;;8.88;4.90;;;20.80;80.50;;;;;;5115885;28;20439;-78
2023/06/28 11:34:16;;;;;;;10.50;6.32;;;21.00;80.10;;;;;;5113163;28;20119;-78
2023/06/28 11:36:43;;;;;;;10.38;6.03;;;21.00;81.00;;;;;;5115528;28;20028;-77
2023/06/28 11:39:13;;;;;;;12.55;5.95;;;21.10;80.70;;;;;;5116436;28;20491;-78
2023/06/28 11:41:40;;;;;;;12.00;6.07;;;21.10;79.60;;;;;;5115597;28;20027;-77
2023/06/28 11:44:07;;;;;;;12.40;5.57;;;21.10;79.40;;;;;;5116459;28;20028;-79
2023/06/28 11:46:34;;;;;;;13.45;6.75;;;21.00;79.90;;;;;;5115432;28;20069;-78
2023/06/28 11:49:02;;;;;;;11.27;5.28;;;21.20;80.10;;;;;;5115418;28;20035;-79
2023/06/28 11:51:29;;;;;;;13.93;6.15;;;21.20;79.50;;;;;;5116317;28;20032;-78
2023/06/28 11:53:55;;;;;;;9.68;5.20;;;21.40;79.60;;;;;;5115193;28;20024;-78
2023/06/28 11:56:41;;;;;;;12.15;6.07;;;21.30;78.50;;;;;;5116151;28;20030;-78
2023/06/28 11:59:17;;;;;;;15.82;5.55;;;21.50;79.20;;;;;;5115136;28;20043;-78
2023/06/28 12:01:44;;;;;;;11.30;6.28;;;21.50;78.30;;;;;;5115105;28;20077;-79
2023/06/28 12:04:17;;;;;;;13.15;6.65;;;21.60;78.70;;;;;;5115063;28;20055;-78
2023/06/28 12:06:44;;;;;;;8.70;5.68;;;21.60;78.90;;;;;;5114723;28;20056;-78
2023/06/28 12:09:20;;;;;;;11.25;6.10;;;21.70;77.70;;;;;;5114856;28;20020;-78
2023/06/28 12:11:54;;;;;;;9.50;5.10;;;21.80;78.40;;;;;;5115844;28;20035;-79
2023/06/28 12:14:21;;;;;;;12.35;5.63;;;21.80;77.70;;;;;;5116083;28;20050;-79
2023/06/28 12:16:48;;;;;;;10.38;5.22;;;21.80;78.70;;;;;;5114832;28;20016;-79
2023/06/28 12:19:17;;;;;;;11.00;4.97;;;21.90;78.90;;;;;;5115559;28;20073;-79
2023/06/28 12:21:43;;;;;;;9.38;5.05;;;22.00;78.40;;;;;;5115730;28;20035;-80
2023/06/28 12:24:16;;;;;;;10.45;4.45;;;22.00;78.30;;;;;;5115681;28;20020;-78
2023/06/28 12:26:49;;;;;;;11.90;4.80;;;22.20;76.40;;;;;;5114534;28;20044;-80
2023/06/28 12:29:18;;;;;;;8.38;4.20;;;22.20;74.80;;;;;;5114493;28;20383;-80
2023/06/28 12:31:47;;;;;;;8.68;4.75;;;22.20;75.50;;;;;;5114345;28;20032;-80
2023/06/28 12:34:38;;;;;;;10.90;4.60;;;22.30;76.40;;;;;;5114494;28;20046;-80
2023/06/28 12:37:05;;;;;;;10.27;4.60;;;22.50;80.50;;;;;;5114487;28;20023;-79
2023/06/28 12:39:34;;;;;;;9.07;4.18;;;22.50;76.50;;;;;;5114223;28;20031;-78
2023/06/28 12:42:17;;;;;;;8.80;4.82;;;22.60;75.40;;;;;;5114309;28;20020;-79
2023/06/28 12:44:51;;;;;;;11.43;4.90;;;22.60;75.90;;;;;;5114363;28;20085;-79
2023/06/28 12:47:22;;;;;;;10.82;4.65;;;22.70;76.40;;;;;;5115213;28;20024;-79
2023/06/28 12:49:49;;;;;;;12.38;4.72;;;22.70;74.80;;;;;;5115203;28;20521;-79
2023/06/28 12:52:14;;;;;;;10.20;4.40;;;22.70;74.10;;;;;;5097244;28;20091;-78
2023/06/28 12:54:41;;;;;;;7.47;4.43;;;22.70;75.20;;;;;;5114161;28;20032;-78
2023/06/28 12:57:07;;;;;;;8.60;4.07;;;22.70;74.30;;;;;;5113951;28;20123;-78
2023/06/28 12:59:34;;;;;;;10.50;4.25;;;22.70;75.20;;;;;;5115076;28;20550;-78